Chisholm Hibbing Airport
KHIB : now visible

Aeroporto :











RITROVATECI SU...

 
LOGIN :

Iscrizione | Disclaimer

   EN    FR    IT 

 









Sommario :    VFR   VFR Marginale   IFR   IFR Intensivo   IFR Molto Intensivo
Visibilità : 
Base nubi : 
>= 8 km
>= 3000ft
5 / 8 km
1000 / 3000 ft
1500m / 5 km
500 / 1000 ft
800 / 1500m
200 / 500 ft
< 800m
< 200 ft
Simboli :   Temporali  Nebbia  Neve Forte  Precipitazioni Forti  Vento > 20 kt






- Altitudine del aeroporto : 1354 ft
- Codice IATA : HIB


KHIB - Chisholm Hibbing

ULTIMO METAR :
  • 200953Z AUTO 00000KT 7SM CLR M33/M36 A3059 RMK AO2 SLP410 T13281356

METARs OBSOLETI :
  • 200853Z AUTO 00000KT 10SM CLR M31/M34 A3061 RMK AO2 SLP414 T13111339 51000

TAF KHIB
Valido dal 20 a 06 ore il 21 a 06 ore UTC


200520Z 2006/2106 29004KT P6SM FEW250
FM201800 24009G17KT P6SM FEW250



MetMap, La meteo Aeronautica in un colpo d'occhio ! - Copyright ORBIFLY Dicembre 2007 - Disclaimer

ORBIFLY MET'MAP TEAM :

Programmazione e sviluppo : Alexandra Zaïnal
Concezione : Baudouin d'Aumeries
Aiuto per la programmazione : Marc-Olivier Méhu
Supporto tecnico e logistico : Manuel Goepfert
Aiuto per la traduzione : Arnaldo La Scala

Contatto : metmap@orbifly.com




FONTI E CREDITI :

   NOAA       Earth
Advisory